Terminal Aerodrome Forecast
Issued by NWS Amarillo, TX

Home | Current Version | Previous Version | Text Only | Print | Product List | Glossary On
Versions: 1 2 3 4 5 6 7 8 9 10 11 12 13 14 15 16 17 18
000
FTUS44 KAMA 032300
TAFAMA
TAF
KAMA 032337Z 0400/0424 24025G35KT P6SM SCT070 BKN120 BKN300
      TEMPO 0400/0402 -TSRA BKN050CB
     FM040200 16015KT P6SM VCTS SCT050CB BKN120 OVC300
     FM040600 18012KT P6SM SCT100 BKN300
     FM041800 16017G27KT P6SM SCT040 BKN100 BKN300=

USA.gov is the U.S. government's official web portal to all federal, state and local government web resources and services.